sensor_id;sensor_type;location;lat;lon;timestamp;pressure;altitude;pressure_sealevel;temperature;humidity
49055;BME280;35405;52.344;14.530;2024-01-15T07:05:08;98484.34;;;1.82;88.07
49055;BME280;35405;52.344;14.530;2024-01-15T07:07:34;98469.63;;;1.87;88.29
49055;BME280;35405;52.344;14.530;2024-01-15T07:09:59;98489.53;;;1.80;88.30
49055;BME280;35405;52.344;14.530;2024-01-15T07:12:45;98483.44;;;1.83;88.09
49055;BME280;35405;52.344;14.530;2024-01-15T07:15:26;98485.09;;;1.87;87.75
49055;BME280;35405;52.344;14.530;2024-01-15T07:18:01;98472.16;;;1.90;87.53
49055;BME280;35405;52.344;14.530;2024-01-15T07:20:26;98481.53;;;1.94;87.66
49055;BME280;35405;52.344;14.530;2024-01-15T07:22:55;98464.38;;;1.93;87.67
49055;BME280;35405;52.344;14.530;2024-01-15T07:25:20;98490.06;;;1.96;88.02
49055;BME280;35405;52.344;14.530;2024-01-15T07:27:45;98489.97;;;2.02;87.74
49055;BME280;35405;52.344;14.530;2024-01-15T07:30:21;98489.06;;;2.03;87.84
49055;BME280;35405;52.344;14.530;2024-01-15T07:32:47;98472.63;;;2.09;88.39
49055;BME280;35405;52.344;14.530;2024-01-15T07:35:14;98479.53;;;2.08;88.05
49055;BME280;35405;52.344;14.530;2024-01-15T07:37:48;98483.84;;;2.08;88.16
49055;BME280;35405;52.344;14.530;2024-01-15T07:40:37;98474.28;;;2.11;88.32
49055;BME280;35405;52.344;14.530;2024-01-15T07:43:08;98491.66;;;2.05;88.08
49055;BME280;35405;52.344;14.530;2024-01-15T07:45:36;98469.09;;;2.14;88.63
49055;BME280;35405;52.344;14.530;2024-01-15T07:48:05;98474.16;;;2.17;88.86
49055;BME280;35405;52.344;14.530;2024-01-15T07:50:41;98488.72;;;2.22;88.93
49055;BME280;35405;52.344;14.530;2024-01-15T07:53:09;98486.13;;;2.22;88.55
49055;BME280;35405;52.344;14.530;2024-01-15T07:55:34;98481.88;;;2.20;88.46
49055;BME280;35405;52.344;14.530;2024-01-15T07:58:17;98491.41;;;2.15;88.60
49055;BME280;35405;52.344;14.530;2024-01-15T08:00:45;98510.59;;;2.02;88.27
49055;BME280;35405;52.344;14.530;2024-01-15T08:03:17;98508.81;;;2.04;88.91
49055;BME280;35405;52.344;14.530;2024-01-15T10:17:31;98538.97;;;2.45;83.61
49055;BME280;35405;52.344;14.530;2024-01-15T10:20:01;98531.81;;;2.58;85.05
49055;BME280;35405;52.344;14.530;2024-01-15T10:23:02;98549.69;;;2.67;85.42
49055;BME280;35405;52.344;14.530;2024-01-15T10:25:30;98551.31;;;2.71;86.71
49055;BME280;35405;52.344;14.530;2024-01-15T10:28:02;98540.25;;;2.66;86.78
49055;BME280;35405;52.344;14.530;2024-01-15T10:30:51;98546.09;;;2.74;87.34
49055;BME280;35405;52.344;14.530;2024-01-15T10:33:15;98543.41;;;2.79;87.26
49055;BME280;35405;52.344;14.530;2024-01-15T10:35:46;98530.91;;;2.61;86.41
49055;BME280;35405;52.344;14.530;2024-01-15T10:38:29;98549.34;;;2.42;86.63
49055;BME280;35405;52.344;14.530;2024-01-15T10:41:06;98544.25;;;2.39;87.37
49055;BME280;35405;52.344;14.530;2024-01-15T10:43:34;98558.88;;;2.39;87.35
49055;BME280;35405;52.344;14.530;2024-01-15T10:46:00;98543.50;;;2.34;87.79
49055;BME280;35405;52.344;14.530;2024-01-15T10:48:26;98531.53;;;2.30;87.91
49055;BME280;35405;52.344;14.530;2024-01-15T10:50:53;98541.09;;;2.25;87.54
49055;BME280;35405;52.344;14.530;2024-01-15T10:53:18;98526.25;;;2.36;87.88
49055;BME280;35405;52.344;14.530;2024-01-15T10:55:44;98513.13;;;2.47;88.13
49055;BME280;35405;52.344;14.530;2024-01-15T10:58:11;98512.25;;;2.46;88.28
49055;BME280;35405;52.344;14.530;2024-01-15T11:00:36;98528.47;;;2.53;88.15
49055;BME280;35405;52.344;14.530;2024-01-15T11:03:05;98529.06;;;2.66;88.01
49055;BME280;35405;52.344;14.530;2024-01-15T11:05:41;98528.00;;;2.74;87.11
49055;BME280;35405;52.344;14.530;2024-01-15T11:08:06;98515.63;;;2.89;87.12
49055;BME280;35405;52.344;14.530;2024-01-15T11:10:39;98518.16;;;2.92;87.07
49055;BME280;35405;52.344;14.530;2024-01-15T11:15:59;98531.72;;;3.01;86.24
49055;BME280;35405;52.344;14.530;2024-01-15T11:18:27;98539.84;;;3.22;87.26
49055;BME280;35405;52.344;14.530;2024-01-15T11:21:28;98533.91;;;3.54;87.17
49055;BME280;35405;52.344;14.530;2024-01-15T11:23:52;98530.88;;;3.71;87.29
49055;BME280;35405;52.344;14.530;2024-01-15T11:26:28;98528.53;;;3.62;86.43
49055;BME280;35405;52.344;14.530;2024-01-15T11:28:56;98515.69;;;3.58;87.42
49055;BME280;35405;52.344;14.530;2024-01-15T11:34:08;98524.91;;;3.69;87.48
49055;BME280;35405;52.344;14.530;2024-01-15T11:42:07;98523.44;;;3.58;85.58
49055;BME280;35405;52.344;14.530;2024-01-15T11:44:33;98519.28;;;3.53;86.41
49055;BME280;35405;52.344;14.530;2024-01-15T11:47:00;98520.38;;;3.43;85.55
49055;BME280;35405;52.344;14.530;2024-01-15T11:52:12;98538.06;;;3.25;85.48
49055;BME280;35405;52.344;14.530;2024-01-15T11:54:52;98531.34;;;3.18;84.78
49055;BME280;35405;52.344;14.530;2024-01-15T11:57:33;98521.19;;;3.09;85.19
49055;BME280;35405;52.344;14.530;2024-01-15T12:00:05;98528.81;;;3.15;85.68
49055;BME280;35405;52.344;14.530;2024-01-15T12:02:39;98526.97;;;3.20;86.11
49055;BME280;35405;52.344;14.530;2024-01-15T12:05:24;98517.25;;;3.32;86.66
49055;BME280;35405;52.344;14.530;2024-01-15T12:08:03;98526.44;;;3.42;86.73
49055;BME280;35405;52.344;14.530;2024-01-15T12:10:52;98523.81;;;3.43;86.72
49055;BME280;35405;52.344;14.530;2024-01-15T12:13:21;98522.53;;;3.61;87.06
49055;BME280;35405;52.344;14.530;2024-01-15T12:15:51;98526.56;;;3.71;87.59
49055;BME280;35405;52.344;14.530;2024-01-15T12:18:24;98529.09;;;3.74;86.28
49055;BME280;35405;52.344;14.530;2024-01-15T12:20:53;98522.88;;;3.80;84.14
49055;BME280;35405;52.344;14.530;2024-01-15T12:23:21;98519.69;;;3.70;82.44
49055;BME280;35405;52.344;14.530;2024-01-15T12:25:48;98534.38;;;3.70;85.04
49055;BME280;35405;52.344;14.530;2024-01-15T12:28:14;98541.56;;;3.57;83.65
49055;BME280;35405;52.344;14.530;2024-01-15T12:30:46;98519.94;;;3.61;84.74
49055;BME280;35405;52.344;14.530;2024-01-15T12:33:14;98531.38;;;3.52;84.87
49055;BME280;35405;52.344;14.530;2024-01-15T12:35:58;98536.69;;;3.45;85.64
49055;BME280;35405;52.344;14.530;2024-01-15T12:38:43;98536.59;;;3.14;83.61
49055;BME280;35405;52.344;14.530;2024-01-15T12:41:28;98522.34;;;2.97;83.34
49055;BME280;35405;52.344;14.530;2024-01-15T12:44:09;98535.56;;;2.84;83.70
49055;BME280;35405;52.344;14.530;2024-01-15T12:46:50;98529.59;;;2.80;84.39
49055;BME280;35405;52.344;14.530;2024-01-15T12:49:55;98541.59;;;2.84;84.72
49055;BME280;35405;52.344;14.530;2024-01-15T12:52:30;98544.44;;;2.72;84.98
49055;BME280;35405;52.344;14.530;2024-01-15T12:58:35;98548.09;;;2.62;86.33
49055;BME280;35405;52.344;14.530;2024-01-15T13:01:24;98550.97;;;2.46;86.29
49055;BME280;35405;52.344;14.530;2024-01-15T13:04:14;98564.16;;;2.34;86.63
49055;BME280;35405;52.344;14.530;2024-01-15T13:25:29;98568.19;;;2.47;88.76
49055;BME280;35405;52.344;14.530;2024-01-15T13:28:16;98567.19;;;2.55;88.92
